Time;durP1;ratioP1;P1;durP2;ratioP2;P2;SDS_P1;SDS_P2;PMS_P1;PMS_P2;Temp;Humidity;BMP_temperature;BMP_pressure;BME280_temperature;BME280_humidity;BME280_pressure;Samples;Min_cycle;Max_cycle;Signal;HPM_P1;HPM_P2
2023/02/27 00:00:13;;;;;;;;;;;;;;;;;;5095464;28;19963;-73
2023/02/27 00:02:39;;;;;;;;;;;;;;;;;;5094754;28;19973;-72
2023/02/27 00:05:06;;;;;;;;;;;;;;;;;;5094859;28;20046;-72
2023/02/27 00:07:32;;;;;;;;;;;;;;;;;;5094775;28;19953;-72
2023/02/27 00:09:58;;;;;;;;;;;;;;;;;;5094972;28;20341;-73
2023/02/27 00:12:23;;;;;;;;;;;;;;;;;;5094657;28;19957;-74
2023/02/27 00:14:50;;;;;;;;;;;;;;;;;;5094544;28;20005;-74
2023/02/27 00:17:16;;;;;;;;;;;;;;;;;;5094896;28;20438;-73
2023/02/27 00:19:42;;;;;;;;;;;;;;;;;;5094485;28;19954;-71
2023/02/27 00:22:07;;;;;;;;;;;;;;;;;;5094684;28;20059;-72
2023/02/27 00:24:33;;;;;;;;;;;;;;;;;;5094749;28;19957;-72
2023/02/27 00:26:59;;;;;;;;;;;;;;;;;;5094439;28;19955;-74
2023/02/27 00:29:25;;;;;;;;;;;;;;;;;;5094686;28;20003;-73
2023/02/27 00:31:52;;;;;;;;;;;;;;;;;;5094336;28;19985;-73
2023/02/27 00:34:17;;;;;;;;;;;;;;;;;;5094330;28;20423;-74
2023/02/27 00:36:43;;;;;;;;;;;;;;;;;;5093933;28;19958;-74
2023/02/27 00:39:09;;;;;;;;;;;;;;;;;;5094417;28;20017;-73
2023/02/27 00:41:35;;;;;;;;;;;;;;;;;;5094689;28;19959;-73
2023/02/27 00:44:01;;;;;;;;;;;;;;;;;;5094126;28;20042;-72
2023/02/27 00:46:27;;;;;;;;;;;;;;;;;;5094396;28;19957;-72
2023/02/27 00:48:53;;;;;;;;;;;;;;;;;;5094395;28;19995;-72
2023/02/27 00:51:19;;;;;;;;;;;;;;;;;;5094101;28;19952;-71
2023/02/27 00:53:45;;;;;;;;;;;;;;;;;;5094013;28;20001;-73
2023/02/27 00:56:10;;;;;;;;;;;;;;;;;;5094245;28;19992;-74
2023/02/27 00:58:36;;;;;;;;;;;;;;;;;;5093918;28;20367;-74
2023/02/27 01:01:02;;;;;;;;;;;;;;;;;;5093914;28;19955;-71
2023/02/27 01:03:28;;;;;;;;;;;;;;;;;;5092523;28;20350;-72
2023/02/27 01:05:54;;;;;;;;;;;;;;;;;;5093841;28;19954;-74
2023/02/27 01:08:21;;;;;;;;;;;;;;;;;;5094384;28;19952;-73
2023/02/27 01:10:47;;;;;;;;;;;;;;;;;;5092245;28;19953;-73
2023/02/27 01:13:13;;;;;;;;;;;;;;;;;;5093716;28;20419;-73
2023/02/27 01:15:39;;;;;;;;;;;;;;;;;;5093781;28;19976;-72
2023/02/27 01:18:04;;;;;;;;;;;;;;;;;;5094002;28;19954;-72
2023/02/27 01:20:30;;;;;;;;;;;;;;;;;;5093713;28;19991;-74
2023/02/27 01:22:56;;;;;;;;;;;;;;;;;;5093632;28;19974;-73
2023/02/27 01:25:22;;;;;;;;;;;;;;;;;;5093660;28;19952;-72
2023/02/27 01:27:49;;;;;;;;;;;;;;;;;;5094223;28;19952;-72
2023/02/27 01:30:15;;;;;;;;;;;;;;;;;;5093917;28;19952;-72
2023/02/27 01:32:41;;;;;;;;;;;;;;;;;;5094152;28;19953;-72
2023/02/27 01:35:07;;;;;;;;;;;;;;;;;;5093542;28;19952;-74
2023/02/27 01:37:33;;;;;;;;;;;;;;;;;;5093532;28;19966;-71
2023/02/27 01:39:59;;;;;;;;;;;;;;;;;;5093610;28;19988;-74
2023/02/27 01:42:25;;;;;;;;;;;;;;;;;;5093437;28;19974;-72
2023/02/27 01:44:50;;;;;;;;;;;;;;;;;;5093474;28;19955;-74
2023/02/27 01:47:17;;;;;;;;;;;;;;;;;;5095142;28;20007;-72
2023/02/27 01:49:42;;;;;;;;;;;;;;;;;;5097742;28;19953;-73
2023/02/27 01:52:08;;;;;;;;;;;;;;;;;;5097378;28;19954;-74
2023/02/27 01:54:34;;;;;;;;;;;;;;;;;;5097919;28;20368;-73
2023/02/27 01:57:02;;;;;;;;;;;;;;;;;;5097279;28;19954;-74
2023/02/27 01:59:29;;;;;;;;;;;;;;;;;;5097300;28;20007;-74
2023/02/27 02:01:54;;;;;;;;;;;;;;;;;;5097452;28;19974;-73
2023/02/27 02:04:20;;;;;;;;;;;;;;;;;;5097172;28;20432;-74
2023/02/27 02:06:46;;;;;;;;;;;;;;;;;;5097498;28;19953;-74
2023/02/27 02:09:12;;;;;;;;;;;;;;;;;;5099356;28;20377;-74
2023/02/27 02:11:38;;;;;;;;;;;;;;;;;;5098719;28;20015;-73
2023/02/27 02:14:09;;;;;;;;;;;;;;;;;;5097619;28;19970;-72
2023/02/27 02:16:35;;;;;;;;;;;;;;;;;;5095432;28;19964;-72
2023/02/27 02:19:01;;;;;;;;;;;;;;;;;;5096879;28;19953;-72
2023/02/27 02:21:27;;;;;;;;;;;;;;;;;;5097355;28;20407;-73
2023/02/27 02:23:53;;;;;;;;;;;;;;;;;;5097063;28;19961;-71
2023/02/27 02:26:19;;;;;;;;;;;;;;;;;;5097351;28;20434;-72
2023/02/27 02:28:45;;;;;;;;;;;;;;;;;;5096674;28;20004;-73
2023/02/27 02:31:10;;;;;;;;;;;;;;;;;;5096901;28;19951;-72
2023/02/27 02:33:36;;;;;;;;;;;;;;;;;;5096872;28;19955;-74
2023/02/27 02:36:02;;;;;;;;;;;;;;;;;;5096589;28;19956;-72
2023/02/27 02:38:28;;;;;;;;;;;;;;;;;;5096363;28;20414;-72
2023/02/27 02:40:54;;;;;;;;;;;;;;;;;;5096768;28;19954;-72
2023/02/27 02:43:20;;;;;;;;;;;;;;;;;;5096345;28;20022;-73
2023/02/27 02:45:46;;;;;;;;;;;;;;;;;;5096385;28;20366;-71
2023/02/27 02:48:12;;;;;;;;;;;;;;;;;;5096573;28;19982;-72
2023/02/27 02:50:38;;;;;;;;;;;;;;;;;;5096287;28;20047;-71
2023/02/27 02:53:03;;;;;;;;;;;;;;;;;;5096509;28;19958;-71
2023/02/27 02:55:29;;;;;;;;;;;;;;;;;;5096176;28;20410;-73
2023/02/27 02:57:55;;;;;;;;;;;;;;;;;;5095499;28;20000;-73
2023/02/27 03:00:21;;;;;;;;;;;;;;;;;;5095608;28;20319;-73
2023/02/27 03:02:47;;;;;;;;;;;;;;;;;;5095952;28;19977;-73
2023/02/27 03:05:13;;;;;;;;;;;;;;;;;;5096258;28;19957;-73
2023/02/27 03:07:39;;;;;;;;;;;;;;;;;;5096221;28;19954;-72
2023/02/27 03:10:05;;;;;;;;;;;;;;;;;;5095921;28;19960;-73
2023/02/27 03:12:31;;;;;;;;;;;;;;;;;;5096129;28;20001;-73
2023/02/27 03:14:56;;;;;;;;;;;;;;;;;;5095843;28;19981;-72
2023/02/27 03:17:22;;;;;;;;;;;;;;;;;;5095788;28;20294;-71
2023/02/27 03:19:48;;;;;;;;;;;;;;;;;;5095732;28;19968;-72
2023/02/27 03:22:14;;;;;;;;;;;;;;;;;;5095868;28;19972;-74
2023/02/27 03:24:40;;;;;;;;;;;;;;;;;;5095592;28;19995;-73
2023/02/27 03:27:06;;;;;;;;;;;;;;;;;;5095578;28;19956;-71
2023/02/27 03:29:33;;;;;;;;;;;;;;;;;;5095501;28;19954;-73
2023/02/27 03:31:59;;;;;;;;;;;;;;;;;;5095829;28;20393;-72
2023/02/27 03:34:25;;;;;;;;;;;;;;;;;;5095720;28;19972;-72
2023/02/27 03:36:51;;;;;;;;;;;;;;;;;;5096020;28;19954;-73
2023/02/27 03:39:17;;;;;;;;;;;;;;;;;;5095105;28;19987;-73
2023/02/27 03:41:42;;;;;;;;;;;;;;;;;;5095205;28;19959;-74
2023/02/27 03:44:08;;;;;;;;;;;;;;;;;;5095475;28;19953;-71
2023/02/27 03:46:34;;;;;;;;;;;;;;;;;;5095471;28;20055;-73
2023/02/27 03:49:00;;;;;;;;;;;;;;;;;;5095678;28;19996;-74
2023/02/27 03:51:27;;;;;;;;;;;;;;;;;;5095073;28;19951;-72
2023/02/27 03:53:53;;;;;;;;;;;;;;;;;;5095054;28;20339;-73
2023/02/27 03:56:19;;;;;;;;;;;;;;;;;;5095028;28;19952;-73
2023/02/27 03:58:45;;;;;;;;;;;;;;;;;;5095203;28;19954;-73
2023/02/27 04:01:10;;;;;;;;;;;;;;;;;;5095148;28;20439;-72
2023/02/27 04:03:36;;;;;;;;;;;;;;;;;;5095333;28;19978;-72
2023/02/27 04:07:21;;;;;;;;;;;;;;;;;;5094803;28;20395;-73
2023/02/27 04:08:49;;;;;;;;;;;;;;;;;;5094526;28;19964;-73
2023/02/27 04:11:15;;;;;;;;;;;;;;;;;;5094794;28;19954;-73
2023/02/27 04:13:41;;;;;;;;;;;;;;;;;;5094630;28;20335;-74
2023/02/27 04:16:06;;;;;;;;;;;;;;;;;;5094931;28;19960;-71
2023/02/27 04:18:32;;;;;;;;;;;;;;;;;;5094574;28;20434;-72
2023/02/27 04:20:58;;;;;;;;;;;;;;;;;;5094550;28;19951;-73
2023/02/27 04:23:24;;;;;;;;;;;;;;;;;;5094706;28;19975;-73
2023/02/27 04:25:50;;;;;;;;;;;;;;;;;;5094745;28;19961;-71
2023/02/27 04:28:16;;;;;;;;;;;;;;;;;;5094944;28;19954;-73
2023/02/27 04:30:42;;;;;;;;;;;;;;;;;;5093087;28;20371;-73
2023/02/27 04:33:08;;;;;;;;;;;;;;;;;;5094904;28;19953;-73
2023/02/27 04:35:34;;;;;;;;;;;;;;;;;;5094375;28;19959;-72
2023/02/27 04:38:00;;;;;;;;;;;;;;;;;;5094283;28;20408;-72
2023/02/27 04:40:25;;;;;;;;;;;;;;;;;;5093993;28;20070;-72
2023/02/27 04:42:54;;;;;;;;;;;;;;;;;;5094666;28;20312;-72
2023/02/27 04:45:20;;;;;;;;;;;;;;;;;;5094139;28;20049;-72
2023/02/27 04:47:46;;;;;;;;;;;;;;;;;;5094096;28;20001;-74
2023/02/27 04:50:12;;;;;;;;;;;;;;;;;;5094078;28;19954;-73
2023/02/27 04:52:38;;;;;;;;;;;;;;;;;;5094332;28;20060;-73
2023/02/27 04:55:04;;;;;;;;;;;;;;;;;;5093993;28;19958;-70
2023/02/27 04:57:30;;;;;;;;;;;;;;;;;;5094225;28;19955;-72
2023/02/27 04:59:56;;;;;;;;;;;;;;;;;;5093978;28;20037;-72
2023/02/27 05:02:23;;;;;;;;;;;;;;;;;;5093827;28;20010;-71
2023/02/27 05:04:49;;;;;;;;;;;;;;;;;;5094187;28;19952;-72
2023/02/27 05:07:15;;;;;;;;;;;;;;;;;;5093822;28;19960;-72
2023/02/27 05:09:42;;;;;;;;;;;;;;;;;;5094399;28;20003;-72
2023/02/27 05:12:08;;;;;;;;;;;;;;;;;;5094172;28;20322;-72
2023/02/27 05:14:34;;;;;;;;;;;;;;;;;;5093752;28;19991;-73
2023/02/27 05:17:00;;;;;;;;;;;;;;;;;;5093773;28;19952;-72
2023/02/27 05:19:26;;;;;;;;;;;;;;;;;;5094285;28;20415;-73
2023/02/27 05:21:52;;;;;;;;;;;;;;;;;;5094941;28;20003;-73
2023/02/27 05:24:17;;;;;;;;;;;;;;;;;;5098222;28;19955;-72
2023/02/27 05:26:43;;;;;;;;;;;;;;;;;;5097868;28;19958;-73
2023/02/27 05:29:09;;;;;;;;;;;;;;;;;;5096550;28;20054;-71
2023/02/27 05:31:35;;;;;;;;;;;;;;;;;;5097787;28;19953;-72
2023/02/27 05:34:01;;;;;;;;;;;;;;;;;;5098308;28;19957;-72
2023/02/27 05:36:27;;;;;;;;;;;;;;;;;;5097974;28;19999;-74
2023/02/27 05:38:53;;;;;;;;;;;;;;;;;;5097691;28;20037;-74
2023/02/27 05:41:19;;;;;;;;;;;;;;;;;;5097923;28;19953;-72
2023/02/27 05:43:45;;;;;;;;;;;;;;;;;;5097768;28;19981;-71
2023/02/27 05:46:10;;;;;;;;;;;;;;;;;;5098091;28;19952;-73
2023/02/27 05:48:36;;;;;;;;;;;;;;;;;;5097473;28;20326;-71
2023/02/27 05:51:02;;;;;;;;;;;;;;;;;;5097734;28;19952;-71
2023/02/27 05:53:28;;;;;;;;;;;;;;;;;;5097382;28;19952;-71
2023/02/27 05:55:54;;;;;;;;;;;;;;;;;;5097951;28;20316;-73
2023/02/27 05:58:20;;;;;;;;;;;;;;;;;;5097585;28;20002;-73
2023/02/27 06:00:46;;;;;;;;;;;;;;;;;;5097849;28;19955;-72
2023/02/27 06:03:12;;;;;;;;;;;;;;;;;;5097095;28;19978;-71
2023/02/27 06:05:38;;;;;;;;;;;;;;;;;;5097185;28;19961;-74
2023/02/27 06:08:04;;;;;;;;;;;;;;;;;;5097409;28;20348;-74
2023/02/27 06:10:30;;;;;;;;;;;;;;;;;;5097414;28;19954;-74
2023/02/27 06:12:56;;;;;;;;;;;;;;;;;;5097034;28;20404;-73
2023/02/27 06:15:22;;;;;;;;;;;;;;;;;;5096931;28;20004;-74
2023/02/27 06:17:47;;;;;;;;;;;;;;;;;;5097570;28;20417;-72
2023/02/27 06:20:13;;;;;;;;;;;;;;;;;;5096897;28;20329;-71
2023/02/27 06:22:39;;;;;;;;;;;;;;;;;;5097080;28;19978;-71
2023/02/27 06:25:05;;;;;;;;;;;;;;;;;;5096794;28;20051;-71
2023/02/27 06:27:31;;;;;;;;;;;;;;;;;;5097013;28;19961;-73
2023/02/27 06:29:57;;;;;;;;;;;;;;;;;;5096972;28;20042;-73
2023/02/27 06:32:24;;;;;;;;;;;;;;;;;;5096593;28;20000;-71
2023/02/27 06:34:50;;;;;;;;;;;;;;;;;;5096644;28;20446;-72
2023/02/27 06:37:16;;;;;;;;;;;;;;;;;;5097118;28;19997;-72
2023/02/27 06:39:42;;;;;;;;;;;;;;;;;;5096326;28;19997;-72
2023/02/27 06:42:08;;;;;;;;;;;;;;;;;;5096938;28;20442;-73
2023/02/27 06:44:33;;;;;;;;;;;;;;;;;;5096337;28;19964;-72
2023/02/27 06:46:59;;;;;;;;;;;;;;;;;;5096609;28;19954;-72
2023/02/27 06:49:28;;;;;;;;;;;;;;;;;;5096273;28;20053;-73
2023/02/27 06:51:54;;;;;;;;;;;;;;;;;;5096784;28;20009;-73
2023/02/27 06:54:20;;;;;;;;;;;;;;;;;;5096184;28;19954;-73
2023/02/27 06:56:46;;;;;;;;;;;;;;;;;;5096014;28;20053;-73
2023/02/27 06:59:12;;;;;;;;;;;;;;;;;;5096358;28;20415;-73
2023/02/27 07:01:38;;;;;;;;;;;;;;;;;;5096012;28;19952;-72
2023/02/27 07:04:04;;;;;;;;;;;;;;;;;;5096327;28;19961;-73
2023/02/27 07:06:30;;;;;;;;;;;;;;;;;;5096012;28;20423;-74
2023/02/27 07:08:56;;;;;;;;;;;;;;;;;;5095964;28;20002;-73
2023/02/27 07:11:22;;;;;;;;;;;;;;;;;;5096512;28;20454;-72
2023/02/27 07:13:48;;;;;;;;;;;;;;;;;;5095853;28;20453;-74
2023/02/27 07:16:13;;;;;;;;;;;;;;;;;;5096394;28;20009;-72
2023/02/27 07:18:40;;;;;;;;;;;;;;;;;;5095768;28;19955;-72
2023/02/27 07:21:06;;;;;;;;;;;;;;;;;;5096032;28;19959;-71
2023/02/27 07:23:32;;;;;;;;;;;;;;;;;;5094279;28;19976;-72
2023/02/27 07:25:58;;;;;;;;;;;;;;;;;;5096229;28;19955;-73
2023/02/27 07:28:24;;;;;;;;;;;;;;;;;;5095576;28;19953;-73
2023/02/27 07:30:50;;;;;;;;;;;;;;;;;;5101509;28;20408;-74
2023/02/27 07:33:16;;;;;;;;;;;;;;;;;;5101588;28;19960;-73
2023/02/27 07:35:42;;;;;;;;;;;;;;;;;;5100794;28;20364;-76
2023/02/27 07:38:08;;;;;;;;;;;;;;;;;;5095417;28;19977;-71
2023/02/27 07:40:33;;;;;;;;;;;;;;;;;;5095209;28;20366;-72
2023/02/27 07:42:59;;;;;;;;;;;;;;;;;;5095240;28;20380;-71
2023/02/27 07:45:25;;;;;;;;;;;;;;;;;;5094682;28;20325;-72
2023/02/27 07:47:51;;;;;;;;;;;;;;;;;;5095208;28;19952;-72
2023/02/27 07:50:17;;;;;;;;;;;;;;;;;;5095420;28;19954;-72
2023/02/27 07:52:43;;;;;;;;;;;;;;;;;;5095021;28;19958;-72
2023/02/27 07:55:09;;;;;;;;;;;;;;;;;;5106585;28;20414;-72
2023/02/27 07:57:35;;;;;;;;;;;;;;;;;;5115453;28;19961;-71
2023/02/27 08:00:01;;;;;;;;;;;;;;;;;;5112542;28;19959;-71
2023/02/27 08:02:27;;;;;;;;;;;;;;;;;;5096674;28;20437;-76
2023/02/27 08:04:53;;;;;;;;;;;;;;;;;;5115553;28;20344;-70
2023/02/27 08:07:19;;;;;;;;;;;;;;;;;;5113820;28;19953;-71
2023/02/27 08:09:45;;;;;;;;;;;;;;;;;;5095124;28;19954;-69
2023/02/27 08:12:11;;;;;;;;;;;;;;;;;;5108727;28;19983;-70
2023/02/27 08:14:37;;;;;;;;;;;;;;;;;;5114039;28;20021;-71
2023/02/27 08:17:03;;;;;;;;;;;;;;;;;;5113393;28;20010;-70
2023/02/27 08:19:29;;;;;;;;;;;;;;;;;;5112054;28;19957;-70
2023/02/27 08:21:55;;;;;;;;;;;;;;;;;;5113594;28;19991;-69
2023/02/27 08:24:21;;;;;;;;;;;;;;;;;;5114172;28;19981;-69
2023/02/27 08:26:47;;;;;;;;;;;;;;;;;;5114874;28;19954;-71
2023/02/27 08:29:13;;;;;;;;;;;;;;;;;;5115125;28;20329;-72
2023/02/27 08:31:39;;;;;;;;;;;;;;;;;;5114799;28;19960;-71
2023/02/27 08:34:05;;;;;;;;;;;;;;;;;;5096611;28;19958;-70
2023/02/27 08:36:31;;;;;;;;;;;;;;;;;;5114970;28;20328;-68
2023/02/27 08:38:57;;;;;;;;;;;;;;;;;;5114795;28;19960;-66
2023/02/27 08:41:23;;;;;;;;;;;;;;;;;;5114996;28;19961;-69
2023/02/27 08:43:48;;;;;;;;;;;;;;;;;;5113746;28;19980;-70
2023/02/27 08:46:14;;;;;;;;;;;;;;;;;;5113591;28;19962;-68
2023/02/27 08:48:41;;;;;;;;;;;;;;;;;;5112741;28;20013;-69
2023/02/27 08:51:07;;;;;;;;;;;;;;;;;;5114725;28;19952;-70
2023/02/27 08:53:33;;;;;;;;;;;;;;;;;;5110479;28;19960;-68
2023/02/27 08:55:59;;;;;;;;;;;;;;;;;;5110567;28;19956;-69
2023/02/27 08:58:25;;;;;;;;;;;;;;;;;;5106724;28;19956;-67
2023/02/27 09:00:51;;;;;;;;;;;;;;;;;;5112142;28;19959;-67
2023/02/27 09:03:17;;;;;;;;;;;;;;;;;;5113538;28;20057;-67
2023/02/27 09:05:43;;;;;;;;;;;;;;;;;;5111733;28;20448;-68
2023/02/27 09:08:08;;;;;;;;;;;;;;;;;;5114197;28;20060;-68
2023/02/27 09:10:34;;;;;;;;;;;;;;;;;;5114449;28;20006;-67
2023/02/27 09:13:01;;;;;;;;;;;;;;;;;;5114157;28;19988;-68
2023/02/27 09:15:26;;;;;;;;;;;;;;;;;;5110632;28;19971;-67
2023/02/27 09:17:55;;;;;;;;;;;;;;;;;;5112951;28;19983;-67
2023/02/27 09:20:21;;;;;;;;;;;;;;;;;;5113251;28;19969;-68
2023/02/27 09:22:47;;;;;;;;;;;;;;;;;;5114212;28;19976;-69
2023/02/27 09:25:13;;;;;;;;;;;;;;;;;;5112741;28;19968;-68
2023/02/27 09:27:38;;;;;;;;;;;;;;;;;;5110875;28;20045;-69
2023/02/27 09:30:04;;;;;;;;;;;;;;;;;;5112542;28;19958;-68
2023/02/27 09:32:31;;;;;;;;;;;;;;;;;;5112505;28;19956;-69
2023/02/27 09:34:57;;;;;;;;;;;;;;;;;;5111006;28;19959;-68
2023/02/27 09:37:23;;;;;;;;;;;;;;;;;;5112136;28;19972;-68
2023/02/27 09:39:49;;;;;;;;;;;;;;;;;;5111991;28;20460;-71
2023/02/27 09:42:17;;;;;;;;;;;;;;;;;;5109595;28;19978;-69
2023/02/27 09:44:43;;;;;;;;;;;;;;;;;;5106503;28;20016;-69
2023/02/27 09:47:09;;;;;;;;;;;;;;;;;;5111968;28;19964;-68
2023/02/27 09:49:35;;;;;;;;;;;;;;;;;;5112303;28;20344;-69
2023/02/27 09:52:01;;;;;;;;;;;;;;;;;;5111958;28;19956;-69
2023/02/27 09:54:27;;;;;;;;;;;;;;;;;;5113093;28;20005;-68
2023/02/27 09:56:53;;;;;;;;;;;;;;;;;;5114620;28;19958;-68
2023/02/27 09:59:19;;;;;;;;;;;;;;;;;;5112133;28;19985;-68
2023/02/27 10:01:45;;;;;;;;;;;;;;;;;;5094957;28;19992;-68
2023/02/27 10:04:11;;;;;;;;;;;;;;;;;;5109908;28;20005;-68
2023/02/27 10:06:37;;;;;;;;;;;;;;;;;;5110441;28;19964;-67
2023/02/27 10:09:03;;;;;;;;;;;;;;;;;;5109177;28;19958;-74
2023/02/27 10:11:29;;;;;;;;;;;;;;;;;;5109648;28;19955;-71
2023/02/27 10:13:55;;;;;;;;;;;;;;;;;;5116121;28;20364;-70
2023/02/27 10:16:21;;;;;;;;;;;;;;;;;;5117665;28;19995;-73
2023/02/27 10:18:46;;;;;;;;;;;;;;;;;;5115638;28;20333;-68
2023/02/27 10:21:12;;;;;;;;;;;;;;;;;;5116045;28;19962;-70
2023/02/27 10:23:38;;;;;;;;;;;;;;;;;;5114612;28;19984;-72
2023/02/27 10:26:04;;;;;;;;;;;;;;;;;;5114463;28;19958;-70
2023/02/27 10:28:30;;;;;;;;;;;;;;;;;;5116080;28;20436;-69
2023/02/27 10:30:57;;;;;;;;;;;;;;;;;;5115064;28;19960;-69
2023/02/27 10:33:23;;;;;;;;;;;;;;;;;;5116134;28;19962;-68
2023/02/27 10:35:52;;;;;;;;;;;;;;;;;;5117367;28;19954;-70
2023/02/27 10:38:18;;;;;;;;;;;;;;;;;;5116133;28;19959;-69
2023/02/27 10:40:44;;;;;;;;;;;;;;;;;;5116023;28;19992;-69
2023/02/27 10:43:10;;;;;;;;;;;;;;;;;;5110340;28;20097;-71
2023/02/27 10:45:36;;;;;;;;;;;;;;;;;;5113390;28;20023;-70
2023/02/27 10:48:02;;;;;;;;;;;;;;;;;;5096451;28;19958;-69
2023/02/27 10:50:28;;;;;;;;;;;;;;;;;;5097244;28;19963;-69
2023/02/27 10:52:53;;;;;;;;;;;;;;;;;;5116837;28;19966;-66
2023/02/27 10:55:19;;;;;;;;;;;;;;;;;;5114615;28;19962;-70
2023/02/27 10:57:45;;;;;;;;;;;;;;;;;;5116370;28;19957;-68
2023/02/27 11:00:12;;;;;;;;;;;;;;;;;;5116866;28;19953;-67
2023/02/27 11:02:37;;;;;;;;;;;;;;;;;;5114980;28;19987;-69
2023/02/27 11:05:03;;;;;;;;;;;;;;;;;;5115678;28;19967;-68
2023/02/27 11:07:29;;;;;;;;;;;;;;;;;;5115218;28;19961;-73
2023/02/27 11:09:55;;;;;;;;;;;;;;;;;;5115416;28;20046;-66
2023/02/27 11:12:21;;;;;;;;;;;;;;;;;;5115966;28;19958;-67
2023/02/27 11:14:47;;;;;;;;;;;;;;;;;;5115209;28;19977;-70
2023/02/27 11:17:13;;;;;;;;;;;;;;;;;;5114506;28;20512;-69
2023/02/27 11:19:39;;;;;;;;;;;;;;;;;;5114610;28;20086;-69
2023/02/27 11:22:05;;;;;;;;;;;;;;;;;;5113990;28;19963;-70
2023/02/27 11:24:31;;;;;;;;;;;;;;;;;;5113689;28;19957;-69
2023/02/27 11:26:56;;;;;;;;;;;;;;;;;;5114872;28;19960;-68
2023/02/27 11:29:22;;;;;;;;;;;;;;;;;;5112483;28;19958;-68
2023/02/27 11:31:48;;;;;;;;;;;;;;;;;;5114521;28;19968;-69
2023/02/27 11:34:14;;;;;;;;;;;;;;;;;;5112857;28;19959;-67
2023/02/27 11:36:40;;;;;;;;;;;;;;;;;;5113343;28;20052;-68
2023/02/27 11:39:06;;;;;;;;;;;;;;;;;;5109398;28;19990;-67
2023/02/27 11:41:32;;;;;;;;;;;;;;;;;;5114999;28;20088;-67
2023/02/27 11:43:58;;;;;;;;;;;;;;;;;;5114718;28;19981;-67
2023/02/27 11:46:24;;;;;;;;;;;;;;;;;;5114968;28;19992;-68
2023/02/27 11:48:50;;;;;;;;;;;;;;;;;;5114985;28;20043;-68
2023/02/27 11:51:15;;;;;;;;;;;;;;;;;;5115017;28;20296;-68
2023/02/27 11:53:41;;;;;;;;;;;;;;;;;;5115235;28;20392;-68
2023/02/27 11:56:07;;;;;;;;;;;;;;;;;;5115658;28;19964;-68
2023/02/27 11:58:33;;;;;;;;;;;;;;;;;;5115426;28;19956;-67
2023/02/27 12:00:59;;;;;;;;;;;;;;;;;;5115970;28;19950;-67
2023/02/27 12:03:25;;;;;;;;;;;;;;;;;;5115233;28;20026;-67
2023/02/27 12:05:52;;;;;;;;;;;;;;;;;;5115865;28;19954;-67
2023/02/27 12:08:18;;;;;;;;;;;;;;;;;;5115535;28;20123;-67
2023/02/27 12:10:44;;;;;;;;;;;;;;;;;;5116035;28;19996;-67
2023/02/27 12:13:10;;;;;;;;;;;;;;;;;;5115070;28;19989;-68
2023/02/27 12:15:36;;;;;;;;;;;;;;;;;;5115364;28;19962;-67
2023/02/27 12:18:02;;;;;;;;;;;;;;;;;;5115292;28;20044;-68
2023/02/27 12:20:28;;;;;;;;;;;;;;;;;;5115040;28;19952;-68
2023/02/27 12:22:54;;;;;;;;;;;;;;;;;;5115764;28;19975;-67
2023/02/27 12:25:19;;;;;;;;;;;;;;;;;;5114939;28;20135;-68
2023/02/27 12:27:45;;;;;;;;;;;;;;;;;;5115383;28;19962;-68
2023/02/27 12:30:11;;;;;;;;;;;;;;;;;;5115034;28;19974;-67
2023/02/27 12:32:37;;;;;;;;;;;;;;;;;;5114937;28;20036;-67
2023/02/27 12:35:04;;;;;;;;;;;;;;;;;;5115280;28;19954;-67
2023/02/27 12:37:32;;;;;;;;;;;;;;;;;;5114673;28;19960;-68
2023/02/27 12:39:58;;;;;;;;;;;;;;;;;;5114417;28;19987;-67
2023/02/27 12:42:24;;;;;;;;;;;;;;;;;;5114552;28;20329;-67
2023/02/27 12:44:50;;;;;;;;;;;;;;;;;;5114584;28;19951;-67
2023/02/27 12:47:15;;;;;;;;;;;;;;;;;;5114844;28;19953;-68
2023/02/27 12:49:41;;;;;;;;;;;;;;;;;;5114487;28;20330;-67
2023/02/27 12:52:07;;;;;;;;;;;;;;;;;;5114745;28;20000;-67
2023/02/27 12:54:33;;;;;;;;;;;;;;;;;;5114406;28;19954;-67
2023/02/27 12:56:59;;;;;;;;;;;;;;;;;;5114647;28;19954;-67
2023/02/27 12:59:25;;;;;;;;;;;;;;;;;;5114337;28;19953;-67
2023/02/27 13:01:51;;;;;;;;;;;;;;;;;;5114841;28;19957;-68
2023/02/27 13:04:17;;;;;;;;;;;;;;;;;;5114291;28;19999;-67
2023/02/27 13:06:43;;;;;;;;;;;;;;;;;;5114544;28;19952;-67
2023/02/27 13:09:08;;;;;;;;;;;;;;;;;;5112257;28;20017;-69
2023/02/27 13:11:34;;;;;;;;;;;;;;;;;;5114182;28;19960;-69
2023/02/27 13:14:00;;;;;;;;;;;;;;;;;;5114271;28;19971;-67
2023/02/27 13:16:26;;;;;;;;;;;;;;;;;;5114413;28;20003;-68
2023/02/27 13:18:52;;;;;;;;;;;;;;;;;;5114151;28;20004;-69
2023/02/27 13:21:18;;;;;;;;;;;;;;;;;;5114416;28;19955;-70
2023/02/27 13:23:46;;;;;;;;;;;;;;;;;;5114138;28;20436;-69
2023/02/27 13:26:12;;;;;;;;;;;;;;;;;;5114435;28;19970;-71
2023/02/27 13:28:38;;;;;;;;;;;;;;;;;;5114072;28;19953;-70
2023/02/27 13:31:04;;;;;;;;;;;;;;;;;;5114670;28;20436;-71
2023/02/27 13:33:30;;;;;;;;;;;;;;;;;;5111636;28;20016;-70
2023/02/27 13:35:56;;;;;;;;;;;;;;;;;;5114275;28;19954;-70
2023/02/27 13:38:22;;;;;;;;;;;;;;;;;;5114253;28;19955;-67
2023/02/27 13:40:47;;;;;;;;;;;;;;;;;;5113640;28;20066;-71
2023/02/27 13:43:13;;;;;;;;;;;;;;;;;;5113278;28;20031;-71
2023/02/27 13:45:39;;;;;;;;;;;;;;;;;;5118403;28;19952;-71
2023/02/27 13:48:05;;;;;;;;;;;;;;;;;;5117064;28;20451;-72
2023/02/27 13:50:31;;;;;;;;;;;;;;;;;;5117974;28;19952;-71
2023/02/27 13:52:57;;;;;;;;;;;;;;;;;;5118544;28;20311;-72
2023/02/27 13:55:23;;;;;;;;;;;;;;;;;;5115398;28;20102;-72
2023/02/27 13:57:51;;;;;;;;;;;;;;;;;;5117509;28;19963;-71
2023/02/27 14:00:17;;;;;;;;;;;;;;;;;;5117949;28;20056;-72
2023/02/27 14:02:43;;;;;;;;;;;;;;;;;;5117474;28;20070;-71
2023/02/27 14:05:09;;;;;;;;;;;;;;;;;;5117677;28;20416;-70
2023/02/27 14:07:35;;;;;;;;;;;;;;;;;;5117607;28;19953;-70
2023/02/27 14:10:01;;;;;;;;;;;;;;;;;;5117620;28;20052;-69
2023/02/27 14:12:27;;;;;;;;;;;;;;;;;;5118108;28;19954;-71
2023/02/27 14:14:52;;;;;;;;;;;;;;;;;;5117495;28;19966;-69
2023/02/27 14:17:18;;;;;;;;;;;;;;;;;;5118000;28;20317;-71
2023/02/27 14:19:44;;;;;;;;;;;;;;;;;;5117725;28;19964;-70
2023/02/27 14:22:10;;;;;;;;;;;;;;;;;;5115328;28;20440;-70
2023/02/27 14:24:38;;;;;;;;;;;;;;;;;;5117547;28;19958;-70
2023/02/27 14:27:04;;;;;;;;;;;;;;;;;;5117194;28;20000;-69
2023/02/27 14:29:32;;;;;;;;;;;;;;;;;;5117178;28;20416;-72
2023/02/27 14:31:58;;;;;;;;;;;;;;;;;;5096800;28;20327;-69
2023/02/27 14:34:24;;;;;;;;;;;;;;;;;;5117373;28;20044;-74
2023/02/27 14:36:50;;;;;;;;;;;;;;;;;;5110260;28;20049;-73
2023/02/27 14:39:16;;;;;;;;;;;;;;;;;;5116029;28;20481;-70
2023/02/27 14:41:43;;;;;;;;;;;;;;;;;;5116025;28;20457;-72
2023/02/27 14:44:09;;;;;;;;;;;;;;;;;;5116225;28;19971;-77
2023/02/27 14:46:35;;;;;;;;;;;;;;;;;;5114957;28;19962;-70
2023/02/27 14:49:01;;;;;;;;;;;;;;;;;;5114897;28;20105;-73
2023/02/27 14:51:29;;;;;;;;;;;;;;;;;;5115885;28;19964;-73
2023/02/27 14:53:54;;;;;;;;;;;;;;;;;;5115600;28;20006;-70
2023/02/27 14:56:20;;;;;;;;;;;;;;;;;;5114639;28;19953;-71
2023/02/27 14:58:47;;;;;;;;;;;;;;;;;;5116064;28;19963;-71
2023/02/27 15:01:13;;;;;;;;;;;;;;;;;;5113349;28;20429;-70
2023/02/27 15:03:40;;;;;;;;;;;;;;;;;;5116978;28;20027;-70
2023/02/27 15:06:06;;;;;;;;;;;;;;;;;;5114283;28;19989;-74
2023/02/27 15:08:32;;;;;;;;;;;;;;;;;;5108051;28;19958;-70
2023/02/27 15:10:58;;;;;;;;;;;;;;;;;;5116432;28;19964;-71
2023/02/27 15:13:24;;;;;;;;;;;;;;;;;;5116502;28;19958;-69
2023/02/27 15:15:52;;;;;;;;;;;;;;;;;;5116809;28;19959;-71
2023/02/27 15:18:20;;;;;;;;;;;;;;;;;;5111797;28;19955;-72
2023/02/27 15:20:46;;;;;;;;;;;;;;;;;;5115182;28;20379;-70
2023/02/27 15:23:11;;;;;;;;;;;;;;;;;;5113081;28;19971;-70
2023/02/27 15:25:37;;;;;;;;;;;;;;;;;;5116376;28;20329;-71
2023/02/27 15:28:03;;;;;;;;;;;;;;;;;;5115977;28;20037;-71
2023/02/27 15:30:29;;;;;;;;;;;;;;;;;;5115061;28;19956;-70
2023/02/27 15:32:55;;;;;;;;;;;;;;;;;;5114610;28;20375;-70
2023/02/27 15:35:21;;;;;;;;;;;;;;;;;;5115916;28;19954;-68
2023/02/27 15:37:47;;;;;;;;;;;;;;;;;;5115868;28;19955;-69
2023/02/27 15:40:13;;;;;;;;;;;;;;;;;;5114621;28;20140;-69
2023/02/27 15:42:39;;;;;;;;;;;;;;;;;;5106033;28;19976;-71
2023/02/27 15:45:05;;;;;;;;;;;;;;;;;;5115706;28;19953;-70
2023/02/27 15:47:31;;;;;;;;;;;;;;;;;;5115723;28;19960;-70
2023/02/27 15:49:58;;;;;;;;;;;;;;;;;;5115618;28;19954;-74
2023/02/27 15:52:23;;;;;;;;;;;;;;;;;;5115907;28;19964;-70
2023/02/27 15:54:49;;;;;;;;;;;;;;;;;;5114825;28;20059;-72
2023/02/27 15:57:15;;;;;;;;;;;;;;;;;;5115040;28;19973;-74
2023/02/27 15:59:41;;;;;;;;;;;;;;;;;;5113184;28;19990;-73
2023/02/27 16:02:07;;;;;;;;;;;;;;;;;;5115580;28;20398;-71
2023/02/27 16:04:34;;;;;;;;;;;;;;;;;;5115602;28;19959;-71
2023/02/27 16:07:00;;;;;;;;;;;;;;;;;;5096593;28;20056;-69
2023/02/27 16:09:26;;;;;;;;;;;;;;;;;;5112783;28;20061;-68
2023/02/27 16:11:52;;;;;;;;;;;;;;;;;;5076409;28;19992;-69
2023/02/27 16:14:18;;;;;;;;;;;;;;;;;;5095223;28;20499;-68
2023/02/27 16:16:43;;;;;;;;;;;;;;;;;;5094759;28;19985;-69
2023/02/27 16:19:10;;;;;;;;;;;;;;;;;;5094665;28;20429;-70
2023/02/27 16:21:36;;;;;;;;;;;;;;;;;;5094951;28;19969;-71
2023/02/27 16:24:01;;;;;;;;;;;;;;;;;;5094499;28;19975;-71
2023/02/27 16:26:29;;;;;;;;;;;;;;;;;;5095035;28;19955;-70
2023/02/27 16:28:55;;;;;;;;;;;;;;;;;;5094498;28;19961;-69
2023/02/27 16:31:21;;;;;;;;;;;;;;;;;;5094755;28;19956;-71
2023/02/27 16:33:47;;;;;;;;;;;;;;;;;;5094645;28;19962;-70
2023/02/27 16:36:12;;;;;;;;;;;;;;;;;;5094347;28;19954;-70